Time;durP1;ratioP1;P1;durP2;ratioP2;P2;SDS_P1;SDS_P2;PMS_P1;PMS_P2;Temp;Humidity;BMP_temperature;BMP_pressure;BME280_temperature;BME280_humidity;BME280_pressure;Samples;Min_cycle;Max_cycle;Signal;HPM_P1;HPM_P2
2023/03/20 00:00:44;;;;;;;38.28;18.60;;;;;;;6.89;100.00;101883.06;5053271;28;20033;-65
2023/03/20 00:03:10;;;;;;;35.17;18.55;;;;;;;6.87;100.00;101884.66;5052805;28;20552;-66
2023/03/20 00:05:36;;;;;;;39.03;19.00;;;;;;;6.87;100.00;101885.53;5052652;28;20526;-66
2023/03/20 00:08:01;;;;;;;37.58;18.73;;;;;;;6.88;100.00;101884.75;5052807;28;20041;-66
2023/03/20 00:10:34;;;;;;;38.03;19.20;;;;;;;6.86;100.00;101883.75;5052974;28;20174;-65
2023/03/20 00:13:00;;;;;;;39.78;19.02;;;;;;;6.90;100.00;101879.72;5052627;28;20025;-66
2023/03/20 00:15:37;;;;;;;40.42;19.33;;;;;;;6.91;100.00;101882.38;5052910;28;20019;-66
2023/03/20 00:18:10;;;;;;;39.58;20.17;;;;;;;6.90;100.00;101874.59;5052828;28;20167;-66
2023/03/20 00:20:36;;;;;;;45.42;20.25;;;;;;;6.89;100.00;101876.28;5052462;28;20380;-66
2023/03/20 00:23:03;;;;;;;40.33;19.45;;;;;;;6.92;100.00;101876.44;5052439;28;20441;-66
2023/03/20 00:25:28;;;;;;;38.47;19.13;;;;;;;6.90;100.00;101865.22;5052857;28;20408;-65
2023/03/20 00:27:54;;;;;;;35.83;18.30;;;;;;;6.90;100.00;101865.22;5052392;28;20469;-66
2023/03/20 00:30:20;;;;;;;37.83;19.38;;;;;;;6.92;100.00;101866.19;5052390;28;20025;-65
2023/03/20 00:32:47;;;;;;;42.60;19.55;;;;;;;6.91;100.00;101856.72;5053197;28;20039;-66
2023/03/20 00:35:28;;;;;;;38.67;19.17;;;;;;;6.94;100.00;101860.28;5052077;28;20108;-65
2023/03/20 00:37:55;;;;;;;37.85;19.50;;;;;;;6.93;100.00;101851.69;5052520;28;20029;-65
2023/03/20 00:40:20;;;;;;;39.35;19.40;;;;;;;6.91;100.00;101838.78;5052936;28;20416;-66
2023/03/20 00:42:50;;;;;;;38.80;18.50;;;;;;;6.90;100.00;101843.84;5052351;28;20048;-66
2023/03/20 00:45:20;;;;;;;33.75;18.50;;;;;;;6.88;100.00;101840.28;5052448;28;20025;-66
2023/03/20 00:47:48;;;;;;;35.90;18.55;;;;;;;6.79;100.00;101832.94;5052146;28;20031;-66
2023/03/20 00:50:17;;;;;;;35.83;17.85;;;;;;;6.70;100.00;101824.66;5052545;28;20116;-66
2023/03/20 00:52:43;;;;;;;37.92;19.70;;;;;;;6.66;100.00;101820.16;5052489;28;20060;-65
2023/03/20 00:55:09;;;;;;;36.75;19.63;;;;;;;6.57;100.00;101829.06;5051766;28;20349;-66
2023/03/20 00:58:04;;;;;;;41.10;20.58;;;;;;;6.54;100.00;101839.09;5052520;28;20108;-66
2023/03/20 01:00:41;;;;;;;36.85;19.30;;;;;;;6.40;100.00;101845.94;5047916;28;20116;-65
2023/03/20 01:03:12;;;;;;;39.40;20.05;;;;;;;6.35;100.00;101860.13;5051961;28;20107;-66
2023/03/20 01:05:37;;;;;;;35.80;19.50;;;;;;;6.31;100.00;101870.06;5052299;28;20163;-65
2023/03/20 01:08:10;;;;;;;37.03;19.48;;;;;;;6.25;100.00;101876.56;5052056;28;20110;-66
2023/03/20 01:10:35;;;;;;;41.15;19.55;;;;;;;6.20;100.00;101895.00;5052037;28;20021;-66
2023/03/20 01:13:01;;;;;;;42.85;19.52;;;;;;;6.15;100.00;101891.25;5051940;28;20399;-66
2023/03/20 01:15:31;;;;;;;43.28;20.55;;;;;;;6.10;100.00;101896.06;5052342;28;20376;-66
2023/03/20 01:17:56;;;;;;;43.60;21.60;;;;;;;6.10;100.00;101890.94;5051816;28;20029;-66
2023/03/20 01:20:25;;;;;;;43.05;21.33;;;;;;;6.05;100.00;101874.41;5052418;28;20036;-66
2023/03/20 01:22:50;;;;;;;43.90;21.13;;;;;;;6.02;100.00;101864.00;5051955;28;20033;-66
2023/03/20 01:25:16;;;;;;;42.67;23.27;;;;;;;5.96;100.00;101861.00;5052075;28;20079;-66
2023/03/20 01:27:45;;;;;;;43.42;21.95;;;;;;;5.89;100.00;101865.72;5052153;28;20488;-66
2023/03/20 01:30:23;;;;;;;45.55;24.02;;;;;;;5.84;100.00;101864.53;5051575;28;20052;-65
2023/03/20 01:32:49;;;;;;;49.97;25.00;;;;;;;5.80;100.00;101870.22;5052305;28;20057;-65
2023/03/20 01:35:17;;;;;;;47.72;24.88;;;;;;;5.76;100.00;101879.38;5052038;28;20242;-66
2023/03/20 01:37:43;;;;;;;47.72;25.08;;;;;;;5.71;100.00;101883.28;5051949;28;20079;-65
2023/03/20 01:40:14;;;;;;;50.47;25.50;;;;;;;5.66;100.00;101878.69;5051717;28;20029;-65
2023/03/20 01:42:40;;;;;;;46.88;25.67;;;;;;;5.67;100.00;101881.31;5053284;28;20029;-66
2023/03/20 01:45:16;;;;;;;49.58;26.00;;;;;;;5.61;100.00;101884.34;5055381;28;20023;-66
2023/03/20 01:47:41;;;;;;;51.47;26.88;;;;;;;5.58;100.00;101876.47;5055799;28;20124;-66
2023/03/20 01:50:27;;;;;;;53.95;26.35;;;;;;;5.58;100.00;101876.47;5055713;28;20440;-65
2023/03/20 01:53:01;;;;;;;50.67;26.27;;;;;;;5.53;100.00;101862.50;5055349;28;20064;-65
2023/03/20 01:55:27;;;;;;;52.08;26.88;;;;;;;5.48;100.00;101851.09;5055942;28;20116;-65
2023/03/20 01:57:56;;;;;;;51.72;26.88;;;;;;;5.50;100.00;101877.66;5055471;28;20047;-65
2023/03/20 02:00:22;;;;;;;51.22;26.67;;;;;;;5.46;100.00;101870.53;5055815;28;20032;-66
2023/03/20 02:02:48;;;;;;;54.58;26.75;;;;;;;5.45;100.00;101876.47;5055527;28;20384;-65
2023/03/20 02:05:18;;;;;;;56.17;27.08;;;;;;;5.42;100.00;101863.44;5054902;28;20025;-65
2023/03/20 02:07:48;;;;;;;52.78;27.08;;;;;;;5.38;100.00;101864.03;5055609;28;20099;-66
2023/03/20 02:10:15;;;;;;;56.97;27.40;;;;;;;5.36;100.00;101855.38;5055141;28;20405;-66
2023/03/20 02:12:42;;;;;;;54.80;27.95;;;;;;;5.32;100.00;101854.31;5055168;28;20025;-65
2023/03/20 02:15:08;;;;;;;57.00;28.15;;;;;;;5.30;100.00;101870.31;5054655;28;20083;-65
2023/03/20 02:17:34;;;;;;;54.65;27.80;;;;;;;5.27;100.00;101871.00;5055311;28;20025;-65
2023/03/20 02:20:08;;;;;;;58.20;27.98;;;;;;;5.25;100.00;101883.69;5054410;28;20027;-65
2023/03/20 02:23:01;;;;;;;51.10;27.38;;;;;;;5.24;100.00;101881.91;5055129;28;20037;-65
2023/03/20 02:26:03;;;;;;;58.58;30.20;;;;;;;5.23;100.00;101889.47;5055143;28;20041;-66
2023/03/20 02:28:55;;;;;;;53.92;30.10;;;;;;;5.18;100.00;101893.38;5055164;28;20482;-66
2023/03/20 02:32:05;;;;;;;62.47;30.70;;;;;;;5.16;100.00;101890.69;5044701;28;20037;-65
2023/03/20 02:35:05;;;;;;;62.35;31.00;;;;;;;5.16;100.00;101883.03;5053122;28;20045;-66
2023/03/20 02:38:06;;;;;;;59.67;31.27;;;;;;;5.17;100.00;101884.81;5054866;28;20039;-65
2023/03/20 02:40:37;;;;;;;71.15;33.17;;;;;;;5.14;100.00;101878.59;5054385;28;20033;-65
2023/03/20 02:43:25;;;;;;;68.97;32.67;;;;;;;5.15;100.00;101883.84;5054273;28;20021;-65
2023/03/20 02:46:11;;;;;;;62.65;32.08;;;;;;;5.15;100.00;101865.94;5054915;28;20032;-64
2023/03/20 02:49:17;;;;;;;62.67;32.63;;;;;;;5.16;100.00;101857.47;5054201;28;20036;-65
2023/03/20 02:52:02;;;;;;;63.75;31.95;;;;;;;5.16;100.00;101865.13;5054351;28;20112;-64
2023/03/20 02:54:39;;;;;;;71.40;34.38;;;;;;;5.15;100.00;101855.72;5054029;28;20912;-66
2023/03/20 02:57:06;;;;;;;64.73;32.87;;;;;;;5.17;100.00;101855.81;5054191;28;20032;-65
2023/03/20 02:59:40;;;;;;;65.00;34.47;;;;;;;5.12;100.00;101855.50;5054823;28;20369;-65
2023/03/20 03:02:15;;;;;;;69.03;32.78;;;;;;;5.06;100.00;101850.88;5053934;28;20031;-65
2023/03/20 03:04:49;;;;;;;57.58;31.15;;;;;;;5.08;100.00;101853.53;5054467;28;20028;-65
2023/03/20 03:07:20;;;;;;;66.90;33.75;;;;;;;5.03;100.00;101854.88;5053815;28;20044;-65
2023/03/20 03:09:52;;;;;;;63.70;32.83;;;;;;;4.99;100.00;101852.91;5053858;28;20075;-66
2023/03/20 03:12:22;;;;;;;61.60;32.17;;;;;;;4.99;100.00;101843.56;5054055;28;20369;-65
2023/03/20 03:14:55;;;;;;;66.13;32.55;;;;;;;4.99;100.00;101835.03;5054346;28;20399;-65
2023/03/20 03:17:24;;;;;;;60.33;30.15;;;;;;;4.97;100.00;101834.00;5053852;28;20116;-66
2023/03/20 03:19:53;;;;;;;61.75;31.77;;;;;;;4.98;100.00;101828.13;5054165;28;20108;-65
2023/03/20 03:22:18;;;;;;;64.47;32.42;;;;;;;5.01;100.00;101815.56;5053515;28;20020;-65
2023/03/20 03:24:46;;;;;;;61.05;32.15;;;;;;;5.01;100.00;101821.56;5054195;28;20349;-64
2023/03/20 03:27:18;;;;;;;57.58;30.55;;;;;;;5.00;100.00;101804.47;5053699;28;20383;-64
2023/03/20 03:29:48;;;;;;;62.70;32.30;;;;;;;5.01;100.00;101802.78;5053699;28;20021;-65
2023/03/20 03:32:28;;;;;;;73.75;32.10;;;;;;;5.02;100.00;101807.09;5053501;28;20029;-65
2023/03/20 03:34:54;;;;;;;62.10;31.65;;;;;;;5.00;100.00;101824.03;5054245;28;20033;-64
2023/03/20 03:37:29;;;;;;;60.10;31.75;;;;;;;4.97;100.00;101813.56;5053557;28;20020;-65
2023/03/20 03:40:01;;;;;;;62.22;32.47;;;;;;;4.97;100.00;101831.47;5053425;28;20146;-65
2023/03/20 03:42:32;;;;;;;64.80;32.75;;;;;;;4.95;100.00;101809.25;5053994;28;20056;-65
2023/03/20 03:45:08;;;;;;;59.38;31.42;;;;;;;4.94;100.00;101810.06;5052973;28;20021;-64
2023/03/20 03:47:42;;;;;;;57.45;31.48;;;;;;;4.92;100.00;101806.50;5053686;28;20033;-65
2023/03/20 03:50:14;;;;;;;63.80;32.72;;;;;;;4.95;100.00;101810.94;5053487;28;20037;-65
2023/03/20 03:52:42;;;;;;;56.92;31.13;;;;;;;4.91;100.00;101809.81;5053130;28;20049;-65
2023/03/20 03:55:12;;;;;;;61.40;31.02;;;;;;;4.92;100.00;101811.59;5053029;28;20024;-64
2023/03/20 03:58:00;;;;;;;60.53;30.17;;;;;;;4.94;100.00;101810.06;5052972;28;20111;-65
2023/03/20 04:00:27;;;;;;;66.40;31.50;;;;;;;4.89;100.00;101807.94;5053110;28;20116;-65
2023/03/20 04:02:55;;;;;;;60.83;31.92;;;;;;;4.88;100.00;101813.84;5053541;28;20036;-64
2023/03/20 04:05:23;;;;;;;56.35;30.75;;;;;;;4.87;100.00;101817.19;5052171;28;20074;-65
2023/03/20 04:07:54;;;;;;;60.03;30.20;;;;;;;4.88;100.00;101801.06;5052992;28;20045;-65
2023/03/20 04:10:20;;;;;;;55.83;28.98;;;;;;;4.87;100.00;101796.75;5053316;28;20052;-64
2023/03/20 04:12:45;;;;;;;48.25;27.92;;;;;;;4.85;100.00;101798.31;5052744;28;20071;-65
2023/03/20 04:15:13;;;;;;;51.83;28.85;;;;;;;4.87;100.00;101797.63;5052988;28;20042;-66
2023/03/20 04:17:39;;;;;;;50.80;27.38;;;;;;;4.87;100.00;101804.41;5053225;28;20013;-64
2023/03/20 04:20:05;;;;;;;48.88;26.27;;;;;;;4.86;100.00;101790.75;5052299;28;20021;-65
2023/03/20 04:22:33;;;;;;;50.88;26.80;;;;;;;4.85;100.00;101788.97;5052681;28;20032;-65
2023/03/20 04:24:59;;;;;;;47.22;25.88;;;;;;;4.88;100.00;101790.84;5052945;28;20077;-66
2023/03/20 04:27:25;;;;;;;47.00;26.33;;;;;;;4.83;100.00;101799.84;5052591;28;20108;-65
2023/03/20 04:29:50;;;;;;;55.17;27.20;;;;;;;4.84;100.00;101800.00;5052796;28;20155;-65
2023/03/20 04:32:15;;;;;;;51.85;28.15;;;;;;;4.78;100.00;101800.44;5052509;28;20040;-65
2023/03/20 04:34:41;;;;;;;53.80;29.83;;;;;;;4.77;100.00;101787.56;5052464;28;20029;-65
2023/03/20 04:37:07;;;;;;;53.72;29.65;;;;;;;4.76;100.00;101784.16;5052279;28;20032;-65
2023/03/20 04:39:33;;;;;;;54.15;29.52;;;;;;;4.76;100.00;101784.16;5053007;28;20029;-67
2023/03/20 04:41:58;;;;;;;54.65;30.75;;;;;;;4.71;100.00;101789.69;5051796;28;20043;-65
2023/03/20 04:44:23;;;;;;;52.67;29.92;;;;;;;4.71;100.00;101784.59;5052833;28;20029;-65
2023/03/20 04:46:49;;;;;;;56.20;30.73;;;;;;;4.69;100.00;101781.06;5052061;28;20047;-65
2023/03/20 04:49:14;;;;;;;56.13;30.85;;;;;;;4.68;100.00;101780.16;5052255;28;20021;-65
2023/03/20 04:51:39;;;;;;;61.17;30.35;;;;;;;4.67;100.00;101767.28;5052540;28;20052;-64
2023/03/20 04:54:05;;;;;;;55.88;30.20;;;;;;;4.68;100.00;101764.84;5051914;28;20464;-65
2023/03/20 04:56:30;;;;;;;54.38;28.70;;;;;;;4.66;100.00;101758.75;5052679;28;20119;-65
2023/03/20 04:58:55;;;;;;;53.55;29.08;;;;;;;4.66;100.00;101766.41;5052533;28;20056;-65
2023/03/20 05:01:22;;;;;;;52.85;29.17;;;;;;;4.67;100.00;101777.50;5051932;28;20060;-65
2023/03/20 05:03:47;;;;;;;54.40;29.35;;;;;;;4.68;100.00;101784.41;5052389;28;20507;-65
2023/03/20 05:06:12;;;;;;;54.65;29.13;;;;;;;4.67;100.00;101787.72;5052375;28;20033;-65
2023/03/20 05:08:38;;;;;;;58.97;29.02;;;;;;;4.68;100.00;101789.50;5051474;28;20122;-64
2023/03/20 05:11:03;;;;;;;54.55;29.13;;;;;;;4.69;100.00;101781.06;5052159;28;20032;-65
2023/03/20 05:13:29;;;;;;;56.72;28.88;;;;;;;4.70;100.00;101772.59;5052701;28;20120;-65
2023/03/20 05:15:55;;;;;;;54.75;29.05;;;;;;;4.71;100.00;101782.03;5051662;28;20021;-65
2023/03/20 05:18:20;;;;;;;52.58;28.92;;;;;;;4.70;100.00;101768.41;5055843;28;20044;-65
2023/03/20 05:20:47;;;;;;;57.75;29.35;;;;;;;4.73;100.00;101767.72;5056353;28;20167;-65
2023/03/20 05:23:13;;;;;;;52.30;28.20;;;;;;;4.76;100.00;101753.50;5055583;28;21079;-65
2023/03/20 05:25:38;;;;;;;54.65;28.90;;;;;;;4.76;100.00;101757.69;5056349;28;20484;-65
2023/03/20 05:28:04;;;;;;;56.55;28.42;;;;;;;4.76;100.00;101768.81;5056177;28;20377;-64
2023/03/20 05:30:29;;;;;;;57.55;27.50;;;;;;;4.76;100.00;101773.94;5055898;28;20057;-64
2023/03/20 05:32:55;;;;;;;51.03;27.65;;;;;;;4.77;100.00;101767.13;5055738;28;20025;-66
2023/03/20 05:35:20;;;;;;;49.03;27.13;;;;;;;4.78;100.00;101766.38;5056245;28;20036;-65
2023/03/20 05:37:46;;;;;;;56.83;28.75;;;;;;;4.79;100.00;101763.03;5055588;28;20032;-64
2023/03/20 05:40:13;;;;;;;47.53;27.52;;;;;;;4.81;100.00;101765.69;5055741;28;20465;-64
2023/03/20 05:42:38;;;;;;;53.35;28.40;;;;;;;4.82;100.00;101768.34;5055984;28;20469;-64
2023/03/20 05:45:05;;;;;;;53.75;27.10;;;;;;;4.82;100.00;101760.69;5055073;28;20063;-65
2023/03/20 05:47:30;;;;;;;51.05;26.48;;;;;;;4.84;100.00;101771.91;5055829;28;20055;-64
2023/03/20 05:49:55;;;;;;;49.97;26.98;;;;;;;4.84;100.00;101760.78;5055559;28;20503;-65
2023/03/20 05:52:21;;;;;;;51.25;26.50;;;;;;;4.87;100.00;101778.88;5055204;28;20063;-64
2023/03/20 05:54:47;;;;;;;49.45;26.50;;;;;;;4.87;100.00;101779.75;5055762;28;20492;-64
2023/03/20 05:57:12;;;;;;;48.97;26.52;;;;;;;4.88;100.00;101778.06;5055119;28;20495;-65
2023/03/20 05:59:37;;;;;;;49.60;26.85;;;;;;;4.89;100.00;101793.53;5055657;28;20413;-64
2023/03/20 06:02:03;;;;;;;48.30;25.80;;;;;;;4.92;100.00;101792.84;5055373;28;20396;-64
2023/03/20 06:04:28;;;;;;;45.22;25.15;;;;;;;4.95;100.00;101791.34;5055156;28;20044;-64
2023/03/20 06:06:54;;;;;;;49.10;25.58;;;;;;;4.97;100.00;101790.59;5054723;28;20045;-64
2023/03/20 06:09:19;;;;;;;45.17;24.63;;;;;;;4.98;100.00;101785.56;5055675;28;20025;-64
2023/03/20 06:11:45;;;;;;;53.63;25.52;;;;;;;5.01;100.00;101797.66;5054919;28;20033;-64
2023/03/20 06:14:10;;;;;;;49.13;24.63;;;;;;;5.04;100.00;101797.91;5055085;28;20100;-64
2023/03/20 06:16:36;;;;;;;48.03;23.23;;;;;;;5.04;100.00;101797.91;5055584;28;20376;-65
2023/03/20 06:19:01;;;;;;;41.25;23.67;;;;;;;5.08;100.00;101803.28;5054578;28;20105;-65
2023/03/20 06:21:27;;;;;;;41.88;22.02;;;;;;;5.11;100.00;101808.63;5055127;28;20025;-64
2023/03/20 06:23:53;;;;;;;51.17;23.70;;;;;;;5.14;100.00;101807.94;5055547;28;20032;-64
2023/03/20 06:26:19;;;;;;;44.80;22.40;;;;;;;5.16;100.00;101810.59;5054401;28;20477;-64
2023/03/20 06:28:44;;;;;;;41.03;22.40;;;;;;;5.17;100.00;101813.25;5054290;28;20029;-64
2023/03/20 06:31:10;;;;;;;42.50;21.15;;;;;;;5.21;100.00;101817.78;5054751;28;20025;-64
2023/03/20 06:33:36;;;;;;;42.00;22.05;;;;;;;5.26;100.00;101813.00;5054640;28;20070;-64
2023/03/20 06:36:03;;;;;;;38.95;20.80;;;;;;;5.26;100.00;101813.88;5054450;28;20027;-64
2023/03/20 06:38:28;;;;;;;42.83;20.80;;;;;;;5.28;100.00;101824.22;5055231;28;20025;-64
2023/03/20 06:40:53;;;;;;;38.63;20.67;;;;;;;5.33;100.00;101819.38;5054085;28;20041;-65
2023/03/20 06:43:19;;;;;;;44.58;20.50;;;;;;;5.34;100.00;101816.06;5054954;28;20039;-64
2023/03/20 06:45:44;;;;;;;36.75;20.48;;;;;;;5.37;100.00;101829.03;5054811;28;20111;-64
2023/03/20 06:48:10;;;;;;;42.90;20.42;;;;;;;5.41;100.00;101833.56;5054074;28;20029;-64
2023/03/20 06:50:36;;;;;;;43.75;20.45;;;;;;;5.45;100.00;101833.00;5054461;28;20108;-64
2023/03/20 06:53:02;;;;;;;41.15;21.00;;;;;;;5.56;100.00;101839.69;5054597;28;20032;-64
2023/03/20 06:55:27;;;;;;;41.50;19.92;;;;;;;5.57;100.00;101846.56;5053919;28;20419;-64
2023/03/20 06:57:52;;;;;;;42.85;20.40;;;;;;;5.61;100.00;101842.56;5054761;28;20139;-65
2023/03/20 07:00:19;;;;;;;46.47;20.80;;;;;;;5.68;100.00;101843.84;5053998;28;20032;-64
2023/03/20 07:02:44;;;;;;;37.40;19.70;;;;;;;5.65;100.00;101851.31;5054446;28;20086;-64
2023/03/20 07:05:10;;;;;;;43.83;19.85;;;;;;;5.65;100.00;101848.75;5054201;28;20072;-64
2023/03/20 07:07:35;;;;;;;36.75;19.02;;;;;;;5.68;100.00;101848.94;5053734;28;20063;-64
2023/03/20 07:10:01;;;;;;;42.10;19.08;;;;;;;5.68;100.00;101849.84;5053747;28;20029;-64
2023/03/20 07:12:27;;;;;;;40.20;19.95;;;;;;;5.69;100.00;101854.16;5054539;28;20017;-64
2023/03/20 07:14:53;;;;;;;44.10;21.13;;;;;;;5.70;100.00;101855.94;5053874;28;20037;-65
2023/03/20 07:17:18;;;;;;;39.00;18.98;;;;;;;5.75;100.00;101861.38;5053903;28;20021;-64
2023/03/20 07:19:43;;;;;;;37.72;18.35;;;;;;;5.81;100.00;101863.44;5054189;28;20427;-64
2023/03/20 07:22:19;;;;;;;42.92;20.15;;;;;;;5.87;100.00;101869.81;5053500;28;20457;-64
2023/03/20 07:24:45;;;;;;;42.50;18.48;;;;;;;5.91;100.00;101853.91;5054019;28;20021;-64
2023/03/20 07:27:11;;;;;;;38.40;18.17;;;;;;;5.92;100.00;101854.78;5053688;28;20079;-64
2023/03/20 07:29:36;;;;;;;44.60;18.92;;;;;;;5.93;100.00;101867.69;5053721;28;20033;-64
2023/03/20 07:32:02;;;;;;;42.30;20.10;;;;;;;5.98;100.00;101865.47;5053418;28;20376;-64
2023/03/20 07:34:27;;;;;;;40.47;18.90;;;;;;;6.04;100.00;101859.84;5053849;28;20024;-64
2023/03/20 07:36:52;;;;;;;40.20;19.15;;;;;;;6.09;100.00;101864.47;5053584;28;20028;-63
2023/03/20 07:39:18;;;;;;;39.33;18.98;;;;;;;6.14;100.00;101867.31;5053374;28;20028;-64
2023/03/20 07:41:43;;;;;;;34.25;18.17;;;;;;;6.23;100.00;101864.47;5052954;28;20477;-64
2023/03/20 07:44:09;;;;;;;43.60;18.70;;;;;;;6.27;100.00;101863.88;5052846;28;20032;-64
2023/03/20 07:46:34;;;;;;;41.17;18.67;;;;;;;6.28;100.00;101855.41;5053354;28;20037;-64
2023/03/20 07:49:00;;;;;;;37.90;18.42;;;;;;;6.30;100.00;101864.09;5053182;28;20044;-64
2023/03/20 07:51:25;;;;;;;36.83;18.65;;;;;;;6.32;100.00;101861.63;5053038;28;20065;-64
2023/03/20 07:53:50;;;;;;;35.88;16.95;;;;;;;6.32;100.00;101859.06;5053822;28;20025;-64
2023/03/20 07:56:16;;;;;;;43.35;17.13;;;;;;;6.26;100.00;101852.75;5053292;28;20032;-64
2023/03/20 07:58:41;;;;;;;36.65;18.05;;;;;;;6.24;100.00;101859.44;5052521;28;20039;-64
2023/03/20 08:01:14;;;;;;;37.03;17.73;;;;;;;6.22;100.00;101861.03;5069893;28;20398;-65
2023/03/20 08:03:39;;;;;;;40.42;17.73;;;;;;;6.25;100.00;101860.34;5069547;28;20037;-64
2023/03/20 08:06:07;;;;;;;35.63;16.90;;;;;;;6.28;100.00;101862.22;5069683;28;20016;-65
2023/03/20 08:08:32;;;;;;;40.15;17.05;;;;;;;6.31;100.00;101860.69;5070248;28;20053;-65
2023/03/20 08:10:58;;;;;;;35.00;16.23;;;;;;;6.29;100.00;101856.28;5069311;28;20063;-64
2023/03/20 08:13:23;;;;;;;37.20;17.35;;;;;;;6.30;100.00;101858.97;5069747;28;20052;-64
2023/03/20 08:15:48;;;;;;;34.92;16.45;;;;;;;6.30;100.00;101858.97;5069850;28;20047;-64
2023/03/20 08:18:14;;;;;;;39.95;16.77;;;;;;;6.34;100.00;101870.25;5068988;28;20067;-64
2023/03/20 08:20:39;;;;;;;34.90;16.73;;;;;;;6.34;100.00;101860.00;5069629;28;20387;-64
2023/03/20 08:23:04;;;;;;;38.45;16.45;;;;;;;6.35;100.00;101860.13;5069252;28;20025;-65
2023/03/20 08:25:32;;;;;;;33.88;15.80;;;;;;;6.37;100.00;101857.66;5068535;28;20476;-65
2023/03/20 08:27:59;;;;;;;39.88;16.95;;;;;;;6.40;100.00;101860.41;5069098;28;20059;-65
2023/03/20 08:30:25;;;;;;;33.75;15.63;;;;;;;6.43;100.00;101863.19;5069519;28;20071;-65
2023/03/20 08:32:50;;;;;;;37.80;15.70;;;;;;;6.49;100.00;101855.84;5069144;28;20025;-65
2023/03/20 08:35:15;;;;;;;38.00;16.20;;;;;;;6.55;100.00;101861.38;5068990;28;20392;-65
2023/03/20 08:37:40;;;;;;;34.58;15.35;;;;;;;6.56;100.00;101858.03;5069549;28;20025;-64
2023/03/20 08:40:06;;;;;;;35.28;15.35;;;;;;;6.66;100.00;101862.06;5068568;28;20021;-64
2023/03/20 08:42:32;;;;;;;32.45;15.18;;;;;;;6.70;100.00;101870.78;5069023;28;20074;-64
2023/03/20 08:44:57;;;;;;;36.97;14.98;;;;;;;6.70;100.00;101869.13;5068969;28;20025;-65
2023/03/20 08:47:22;;;;;;;39.63;15.65;;;;;;;6.70;100.00;101870.78;5068582;28;20499;-64
2023/03/20 08:49:48;;;;;;;34.35;15.23;;;;;;;6.75;100.00;101864.28;5069143;28;20025;-64
2023/03/20 08:52:13;;;;;;;34.72;14.57;;;;;;;6.77;100.00;101861.81;5068697;28;20071;-64
2023/03/20 08:54:38;;;;;;;36.35;14.43;;;;;;;6.81;100.00;101861.22;5068370;28;20025;-64
2023/03/20 08:57:04;;;;;;;34.85;14.68;;;;;;;6.84;100.00;101858.84;5068760;28;20384;-64
2023/03/20 08:59:30;;;;;;;37.42;14.25;;;;;;;6.94;100.00;101865.41;5068700;28;20053;-64
2023/03/20 09:01:55;;;;;;;43.63;14.60;;;;;;;6.97;100.00;101852.78;5067597;28;20052;-64
2023/03/20 09:04:20;;;;;;;30.73;13.45;;;;;;;7.01;99.88;101852.16;5068642;28;20173;-64
2023/03/20 09:06:46;;;;;;;35.78;14.25;;;;;;;7.13;100.00;101850.34;5068821;28;20025;-64
2023/03/20 09:09:14;;;;;;;33.72;14.05;;;;;;;7.17;99.73;101849.72;5067515;28;20039;-64
2023/03/20 09:11:40;;;;;;;33.75;13.27;;;;;;;7.18;98.77;101856.63;5060653;28;20104;-64
2023/03/20 09:14:06;;;;;;;35.28;13.60;;;;;;;7.17;98.59;101859.97;5054724;28;20063;-64
2023/03/20 09:16:32;;;;;;;27.92;13.00;;;;;;;7.15;98.29;101866.69;5055047;28;20029;-64
2023/03/20 09:18:57;;;;;;;35.60;14.75;;;;;;;7.04;99.14;101863.50;5055177;28;20032;-64
2023/03/20 09:21:23;;;;;;;35.92;14.98;;;;;;;6.90;100.00;101865.22;5054890;28;20507;-64
2023/03/20 09:23:48;;;;;;;37.15;14.90;;;;;;;6.81;100.00;101874.91;5055441;28;20025;-64
2023/03/20 09:26:13;;;;;;;34.65;14.55;;;;;;;6.67;100.00;101874.03;5054990;28;20348;-64
2023/03/20 09:28:39;;;;;;;32.58;15.63;;;;;;;6.55;100.00;101876.72;5054854;28;20100;-64
2023/03/20 09:31:04;;;;;;;36.70;16.90;;;;;;;6.52;100.00;101870.53;5054505;28;20025;-64
2023/03/20 09:33:30;;;;;;;39.63;16.70;;;;;;;6.46;100.00;101871.03;5055290;28;20125;-64
2023/03/20 09:35:55;;;;;;;36.88;17.52;;;;;;;6.40;100.00;101871.56;5054477;28;20532;-64
2023/03/20 09:38:21;;;;;;;35.78;16.27;;;;;;;6.34;100.00;101875.38;5055017;28;20021;-64
2023/03/20 09:40:51;;;;;;;40.63;17.27;;;;;;;6.29;100.00;101876.75;5055012;28;20032;-64
2023/03/20 09:43:57;;;;;;;40.05;16.95;;;;;;;6.32;100.00;101882.09;5054070;28;20024;-64
2023/03/20 09:46:34;;;;;;;37.70;16.55;;;;;;;6.26;100.00;101882.56;5055053;28;20071;-63
2023/03/20 09:49:16;;;;;;;35.33;17.15;;;;;;;6.28;100.00;101881.00;5054618;28;20032;-63
2023/03/20 09:51:51;;;;;;;37.70;17.15;;;;;;;6.33;100.00;101879.63;5054504;28;20120;-64
2023/03/20 09:54:22;;;;;;;36.20;16.55;;;;;;;6.39;100.00;101885.13;5054377;28;20117;-63
2023/03/20 09:56:50;;;;;;;42.72;16.70;;;;;;;6.42;100.00;101879.31;5054175;28;20031;-64
2023/03/20 09:59:19;;;;;;;38.78;18.70;;;;;;;6.48;100.00;101873.69;5053741;28;20560;-63
2023/03/20 10:01:58;;;;;;;40.22;18.17;;;;;;;6.47;100.00;101877.94;5054733;28;20032;-63
2023/03/20 10:04:27;;;;;;;37.83;17.63;;;;;;;6.49;100.00;101873.78;5053991;28;20158;-63
2023/03/20 10:06:53;;;;;;;40.15;17.63;;;;;;;6.49;100.00;101866.09;5054471;28;20047;-63
2023/03/20 10:09:18;;;;;;;40.97;17.35;;;;;;;6.46;100.00;101867.59;5054459;28;20032;-63
2023/03/20 10:11:52;;;;;;;39.70;17.80;;;;;;;6.48;100.00;101864.34;5053820;28;20033;-63
2023/03/20 10:14:59;;;;;;;37.10;15.35;;;;;;;6.55;100.00;101865.63;5054098;28;20294;-63
2023/03/20 10:18:06;;;;;;;41.08;17.02;;;;;;;6.55;100.00;101866.50;5053357;28;20041;-63
2023/03/20 10:20:45;;;;;;;33.72;15.68;;;;;;;6.59;100.00;101858.19;5031014;28;20033;-63
2023/03/20 10:23:42;;;;;;;32.13;14.68;;;;;;;6.68;100.00;101863.00;5052777;28;20492;-63
2023/03/20 10:26:12;;;;;;;37.00;15.77;;;;;;;6.73;100.00;101856.50;5038540;28;20037;-63
2023/03/20 10:28:45;;;;;;;30.42;13.52;;;;;;;6.79;100.00;101849.97;5054178;28;20025;-63
2023/03/20 10:31:21;;;;;;;31.30;13.48;;;;;;;6.73;100.00;101845.38;5053664;28;20021;-63
2023/03/20 10:34:23;;;;;;;35.20;14.23;;;;;;;6.78;100.00;101854.22;5053961;28;20036;-63
2023/03/20 10:37:17;;;;;;;33.15;14.00;;;;;;;6.69;100.00;101853.66;5054002;28;20057;-63
2023/03/20 10:39:51;;;;;;;28.88;12.75;;;;;;;6.66;100.00;101845.78;5053140;28;20487;-63
2023/03/20 10:42:23;;;;;;;26.42;12.20;;;;;;;6.65;100.00;101847.47;5053672;28;20029;-64
2023/03/20 10:45:03;;;;;;;28.88;12.43;;;;;;;6.66;100.00;101843.22;5053705;28;20491;-64
2023/03/20 10:47:34;;;;;;;32.67;12.77;;;;;;;6.64;100.00;101848.25;5052991;28;20021;-63
2023/03/20 10:50:10;;;;;;;30.50;12.13;;;;;;;6.70;100.00;101846.06;5053376;28;20025;-63
2023/03/20 10:52:39;;;;;;;38.90;14.13;;;;;;;6.74;100.00;101842.03;5053160;28;20072;-65
2023/03/20 10:55:10;;;;;;;30.00;12.05;;;;;;;6.84;100.00;101854.63;5052930;28;20372;-66
2023/03/20 10:57:42;;;;;;;33.13;12.90;;;;;;;7.08;100.00;101856.88;5053492;28;20476;-65
2023/03/20 11:00:18;;;;;;;30.58;13.32;;;;;;;7.21;100.00;101846.53;5052209;28;20087;-65
2023/03/20 11:02:43;;;;;;;29.75;12.68;;;;;;;7.24;100.00;101846.75;5053143;28;20029;-65
2023/03/20 11:05:29;;;;;;;31.75;12.80;;;;;;;7.29;100.00;101848.69;5052885;28;20031;-65
2023/03/20 11:08:11;;;;;;;30.83;12.80;;;;;;;7.40;100.00;101830.56;5052247;28;20044;-65
2023/03/20 11:10:38;;;;;;;34.58;12.70;;;;;;;7.39;100.00;101831.34;5053125;28;20401;-65
2023/03/20 11:13:26;;;;;;;29.73;12.80;;;;;;;7.49;100.00;101830.22;5052909;28;20162;-65
2023/03/20 11:15:53;;;;;;;30.20;13.75;;;;;;;7.51;100.00;101833.75;5052519;28;20052;-65
2023/03/20 11:18:19;;;;;;;31.90;14.05;;;;;;;7.54;100.00;101836.50;5052922;28;20086;-64
2023/03/20 11:20:54;;;;;;;29.88;13.50;;;;;;;7.52;100.00;101827.81;5052420;28;20058;-65